Time;durP1;ratioP1;P1;durP2;ratioP2;P2;SDS_P1;SDS_P2;PMS_P1;PMS_P2;Temp;Humidity;BMP_temperature;BMP_pressure;BME280_temperature;BME280_humidity;BME280_pressure;Samples;Min_cycle;Max_cycle;Signal;HPM_P1;HPM_P2
2022/04/16 00:00:50;;;;;;;4.80;3.65;;;18.10;60.40;;;;;;4908823;28;98864;-72
2022/04/16 00:03:16;;;;;;;4.75;4.22;;;18.10;60.30;;;;;;4909332;28;98937;-71
2022/04/16 00:05:42;;;;;;;4.10;3.70;;;18.10;61.20;;;;;;4909192;28;99824;-71
2022/04/16 00:08:08;;;;;;;4.43;4.03;;;18.10;60.30;;;;;;4908995;28;98742;-71
2022/04/16 00:10:39;;;;;;;4.20;3.80;;;18.10;60.20;;;;;;4892294;28;99061;-71
2022/04/16 00:13:05;;;;;;;4.53;4.03;;;18.10;60.20;;;;;;4909695;28;98782;-71
2022/04/16 00:15:31;;;;;;;4.40;3.90;;;18.10;60.30;;;;;;4908870;28;100824;-71
2022/04/16 00:17:57;;;;;;;4.88;4.00;;;18.10;60.20;;;;;;4909033;28;100676;-71
2022/04/16 00:20:25;;;;;;;4.47;4.05;;;18.10;60.10;;;;;;4908524;28;98696;-71
2022/04/16 00:22:51;;;;;;;4.20;3.80;;;18.10;60.20;;;;;;4907889;28;98656;-71
2022/04/16 00:25:17;;;;;;;5.55;4.40;;;18.10;60.10;;;;;;4907184;28;100448;-71
2022/04/16 00:27:42;;;;;;;4.55;4.15;;;18.10;60.20;;;;;;4909283;28;99387;-71
2022/04/16 00:30:08;;;;;;;5.05;4.40;;;18.10;60.10;;;;;;4908770;28;99694;-71
2022/04/16 00:32:35;;;;;;;4.35;3.95;;;18.10;60.10;;;;;;4909662;28;97791;-71
2022/04/16 00:35:02;;;;;;;4.50;4.10;;;18.00;60.10;;;;;;4907813;28;101909;-69
2022/04/16 00:37:28;;;;;;;4.65;3.92;;;18.10;60.10;;;;;;4909539;28;100845;-71
2022/04/16 00:39:54;;;;;;;4.28;3.88;;;18.00;60.10;;;;;;4908781;28;99792;-71
2022/04/16 00:42:19;;;;;;;4.45;4.05;;;18.00;60.10;;;;;;4909490;28;98865;-71
2022/04/16 00:44:45;;;;;;;4.35;3.95;;;18.00;60.10;;;;;;4908627;28;99944;-71
2022/04/16 00:47:12;;;;;;;4.57;4.07;;;18.00;60.10;;;;;;4907703;28;109330;-71
2022/04/16 00:49:37;;;;;;;5.35;4.35;;;18.00;60.10;;;;;;4908458;28;98783;-71
2022/04/16 00:52:04;;;;;;;4.30;3.90;;;18.00;60.10;;;;;;4908452;28;98739;-71
2022/04/16 00:54:31;;;;;;;4.43;4.03;;;18.00;60.00;;;;;;4907461;28;99147;-71
2022/04/16 00:56:57;;;;;;;5.20;4.13;;;18.00;60.00;;;;;;4909010;28;98789;-71
2022/04/16 00:59:30;;;;;;;5.20;4.18;;;18.00;60.00;;;;;;4910498;28;99722;-71
2022/04/16 01:01:58;;;;;;;4.63;4.13;;;18.00;60.00;;;;;;4914510;28;99187;-71
2022/04/16 01:04:25;;;;;;;5.22;4.20;;;18.00;59.90;;;;;;4909804;28;99909;-71
2022/04/16 01:06:51;;;;;;;4.80;4.35;;;18.00;59.90;;;;;;4908983;28;99633;-71
2022/04/16 01:09:16;;;;;;;4.82;4.32;;;18.00;60.00;;;;;;4908838;28;100132;-73
2022/04/16 01:11:44;;;;;;;4.72;4.10;;;18.00;60.00;;;;;;4908444;28;98628;-71
2022/04/16 01:14:10;;;;;;;4.75;4.15;;;18.00;60.00;;;;;;4907978;28;100399;-71
2022/04/16 01:16:36;;;;;;;6.40;4.15;;;18.00;59.90;;;;;;4908747;28;98976;-71
2022/04/16 01:19:01;;;;;;;4.75;4.25;;;18.00;59.90;;;;;;4908599;28;98888;-71
2022/04/16 01:21:27;;;;;;;4.80;4.40;;;17.90;59.80;;;;;;4909369;28;98347;-71
2022/04/16 01:23:53;;;;;;;4.30;3.90;;;18.00;59.90;;;;;;4907235;28;100075;-71
2022/04/16 01:26:20;;;;;;;4.70;4.28;;;17.90;59.80;;;;;;4908575;28;99346;-70
2022/04/16 01:28:46;;;;;;;4.93;4.43;;;17.90;59.80;;;;;;4908706;28;99852;-71
2022/04/16 01:31:12;;;;;;;4.85;4.00;;;18.00;59.90;;;;;;4908762;28;98514;-71
2022/04/16 01:33:37;;;;;;;4.60;4.20;;;18.00;59.80;;;;;;4907661;28;99089;-71
2022/04/16 01:36:03;;;;;;;4.57;4.18;;;17.90;59.70;;;;;;4909994;28;99919;-72
2022/04/16 01:38:29;;;;;;;6.43;4.20;;;17.90;59.70;;;;;;4912255;28;98542;-71
2022/04/16 01:40:56;;;;;;;5.05;3.80;;;18.00;59.80;;;;;;4911598;28;98594;-71
2022/04/16 01:43:22;;;;;;;4.68;4.18;;;18.00;59.80;;;;;;4911335;28;99755;-71
2022/04/16 01:45:49;;;;;;;4.68;4.20;;;17.90;59.70;;;;;;4910870;28;100833;-71
2022/04/16 01:48:19;;;;;;;5.32;4.15;;;17.90;59.60;;;;;;4911345;28;98600;-71
2022/04/16 01:50:46;;;;;;;4.32;3.92;;;17.90;59.60;;;;;;4911934;28;99178;-72
2022/04/16 01:53:12;;;;;;;4.45;4.00;;;17.90;59.60;;;;;;4911288;28;99720;-71
2022/04/16 01:55:38;;;;;;;4.60;4.10;;;18.00;59.70;;;;;;4911456;28;100205;-71
2022/04/16 01:58:06;;;;;;;4.47;4.07;;;17.90;59.60;;;;;;4912199;28;98752;-71
2022/04/16 02:00:33;;;;;;;5.10;4.60;;;17.90;59.50;;;;;;4910990;28;99172;-72
2022/04/16 02:02:59;;;;;;;4.70;4.05;;;17.90;59.50;;;;;;4911562;28;99031;-71
2022/04/16 02:05:25;;;;;;;4.78;4.35;;;17.90;59.50;;;;;;4910892;28;99212;-71
2022/04/16 02:07:50;;;;;;;5.10;4.57;;;17.90;59.50;;;;;;4910757;28;98635;-72
2022/04/16 02:10:17;;;;;;;5.03;4.53;;;17.90;59.40;;;;;;4912324;28;98671;-71
2022/04/16 02:12:43;;;;;;;4.55;4.15;;;17.90;59.40;;;;;;4911517;28;99716;-69
2022/04/16 02:15:10;;;;;;;4.60;4.20;;;17.90;59.40;;;;;;4911677;28;100868;-71
2022/04/16 02:17:39;;;;;;;4.45;4.00;;;17.80;59.40;;;;;;4910996;28;99409;-71
2022/04/16 02:20:07;;;;;;;4.40;4.00;;;17.90;59.30;;;;;;4910542;28;98810;-71
2022/04/16 02:22:58;;;;;;;4.32;3.90;;;17.80;59.40;;;;;;4910766;28;100600;-71
2022/04/16 02:25:24;;;;;;;5.30;4.80;;;17.80;59.30;;;;;;4906000;28;104565;-71
2022/04/16 02:27:50;;;;;;;5.80;4.90;;;17.80;59.30;;;;;;4911226;28;99207;-73
2022/04/16 02:30:18;;;;;;;5.35;4.43;;;17.80;59.30;;;;;;4912375;28;98592;-71
2022/04/16 02:32:52;;;;;;;5.07;4.57;;;17.80;59.20;;;;;;4910942;28;100222;-71
2022/04/16 02:35:18;;;;;;;4.90;4.40;;;17.80;59.20;;;;;;4911843;28;99935;-71
2022/04/16 02:37:44;;;;;;;4.72;4.32;;;17.80;59.30;;;;;;4911226;28;98981;-71
2022/04/16 02:40:10;;;;;;;4.88;4.40;;;17.80;59.30;;;;;;4911830;28;98727;-70
2022/04/16 02:42:37;;;;;;;5.15;4.65;;;17.80;59.20;;;;;;4909309;28;101509;-71
2022/04/16 02:47:49;;;;;;;5.00;4.40;;;17.80;59.10;;;;;;4910848;28;98846;-71
2022/04/16 02:50:15;;;;;;;4.78;4.38;;;17.70;59.10;;;;;;4911913;28;99024;-71
2022/04/16 02:52:41;;;;;;;5.70;4.50;;;17.80;59.20;;;;;;4910337;28;99878;-71
2022/04/16 02:55:07;;;;;;;4.80;4.30;;;17.80;59.10;;;;;;4911206;28;99865;-71
2022/04/16 02:57:33;;;;;;;4.90;4.40;;;17.70;59.10;;;;;;4911202;28;98651;-71
2022/04/16 02:59:59;;;;;;;4.53;4.13;;;17.70;59.10;;;;;;4912680;28;98040;-71
2022/04/16 03:02:25;;;;;;;5.20;4.50;;;17.70;59.10;;;;;;4910876;28;100192;-71
2022/04/16 03:04:51;;;;;;;6.55;4.60;;;17.70;59.00;;;;;;4909961;28;99062;-71
2022/04/16 03:07:17;;;;;;;5.72;4.35;;;17.70;59.00;;;;;;4911217;28;99396;-71
2022/04/16 03:09:43;;;;;;;5.10;4.60;;;17.70;59.00;;;;;;4912152;28;98913;-71
2022/04/16 03:12:09;;;;;;;5.88;4.50;;;17.70;58.90;;;;;;4910762;28;99256;-71
2022/04/16 04:18:34;;;;;;;6.85;4.60;;;17.70;58.90;;;;;;5327302;23;103658;-69
2022/04/16 04:21:00;;;;;;;7.90;5.60;;;17.80;58.90;;;;;;4892237;28;99886;-69
2022/04/16 04:23:25;;;;;;;8.35;5.50;;;17.80;58.90;;;;;;4892849;28;99849;-69
2022/04/16 04:25:52;;;;;;;10.48;5.57;;;17.70;58.80;;;;;;4892876;28;99426;-70
2022/04/16 04:28:18;;;;;;;8.52;5.07;;;17.80;58.90;;;;;;4893285;28;98642;-70
2022/04/16 04:30:44;;;;;;;8.57;5.63;;;17.70;58.80;;;;;;4891031;28;99934;-69
2022/04/16 04:33:09;;;;;;;6.28;5.07;;;17.80;58.90;;;;;;4891245;28;100043;-70
2022/04/16 04:35:35;;;;;;;7.88;5.57;;;17.70;58.80;;;;;;4905714;28;103036;-69
2022/04/16 04:38:00;;;;;;;6.15;5.55;;;17.70;58.90;;;;;;4911166;28;98658;-67
2022/04/16 04:40:26;;;;;;;7.50;5.53;;;17.70;58.90;;;;;;4910169;28;100239;-69
2022/04/16 04:42:51;;;;;;;7.85;5.60;;;17.70;58.90;;;;;;4910840;28;111416;-68
2022/04/16 04:45:17;;;;;;;8.52;5.82;;;17.60;58.80;;;;;;4911343;28;99142;-69
2022/04/16 04:47:43;;;;;;;6.82;5.80;;;17.60;58.90;;;;;;4912317;28;97933;-69
2022/04/16 04:50:10;;;;;;;6.45;5.85;;;17.60;58.80;;;;;;4910181;28;99183;-69
2022/04/16 04:52:37;;;;;;;7.97;5.93;;;17.60;58.80;;;;;;4908868;28;100915;-69
2022/04/16 04:55:07;;;;;;;8.60;6.30;;;17.60;58.80;;;;;;4909923;28;99715;-69
2022/04/16 04:57:33;;;;;;;6.88;6.18;;;17.60;58.80;;;;;;4911119;28;99059;-69
2022/04/16 04:59:58;;;;;;;7.80;6.30;;;17.60;58.90;;;;;;4909168;28;106927;-69
2022/04/16 05:02:25;;;;;;;7.07;6.35;;;17.50;58.70;;;;;;4908442;28;99733;-69
2022/04/16 05:04:51;;;;;;;7.75;6.60;;;17.60;58.80;;;;;;4910518;28;98561;-69
2022/04/16 05:07:16;;;;;;;7.40;6.60;;;17.50;58.80;;;;;;4910519;28;98704;-70
2022/04/16 05:09:42;;;;;;;9.43;7.18;;;17.50;58.70;;;;;;4910024;28;100561;-70
2022/04/16 05:12:07;;;;;;;9.23;6.95;;;17.50;58.70;;;;;;4914215;28;99363;-70
2022/04/16 05:14:33;;;;;;;8.07;7.10;;;17.50;58.70;;;;;;4914409;28;99477;-70
2022/04/16 05:16:59;;;;;;;8.65;7.53;;;17.50;58.70;;;;;;4913798;28;99179;-69
2022/04/16 05:19:25;;;;;;;8.75;6.97;;;17.50;58.70;;;;;;4914684;28;100157;-70
2022/04/16 05:21:50;;;;;;;8.02;7.20;;;17.50;58.70;;;;;;4913419;28;99751;-69
2022/04/16 05:24:16;;;;;;;10.13;8.05;;;17.50;58.80;;;;;;4914020;28;98594;-70
2022/04/16 05:26:41;;;;;;;9.43;7.63;;;17.50;58.70;;;;;;4913700;28;98972;-71
2022/04/16 05:29:07;;;;;;;8.73;7.65;;;17.50;58.80;;;;;;4913368;28;100391;-68
2022/04/16 05:31:34;;;;;;;8.70;7.85;;;17.50;59.70;;;;;;4912620;28;99113;-70
2022/04/16 05:34:18;;;;;;;9.30;8.25;;;17.50;58.70;;;;;;4913651;28;98635;-69
2022/04/16 05:36:48;;;;;;;9.55;8.52;;;17.50;58.70;;;;;;4913205;28;98217;-71
2022/04/16 05:39:15;;;;;;;10.55;8.35;;;17.50;58.70;;;;;;4912751;28;100627;-69
2022/04/16 05:41:41;;;;;;;9.07;8.02;;;17.50;58.70;;;;;;4912357;28;100061;-69
2022/04/16 05:44:06;;;;;;;9.30;8.40;;;17.40;58.60;;;;;;4913521;28;99332;-70
2022/04/16 05:46:32;;;;;;;9.98;8.57;;;17.50;58.70;;;;;;4913997;28;99329;-70
2022/04/16 05:48:58;;;;;;;9.13;8.23;;;17.50;58.70;;;;;;4912114;28;99238;-69
2022/04/16 05:51:25;;;;;;;9.55;8.65;;;17.50;58.70;;;;;;4911166;28;98663;-69
2022/04/16 05:53:52;;;;;;;9.90;8.90;;;17.50;58.70;;;;;;4912182;28;98628;-70
2022/04/16 05:56:19;;;;;;;10.45;8.43;;;17.40;58.60;;;;;;4912198;28;98968;-70
2022/04/16 05:58:45;;;;;;;9.80;8.85;;;17.50;58.70;;;;;;4912067;28;99139;-69
2022/04/16 06:01:11;;;;;;;19.42;10.00;;;17.50;58.70;;;;;;4912182;28;98134;-69
2022/04/16 06:03:39;;;;;;;12.50;8.98;;;17.50;58.70;;;;;;4912398;28;98552;-70
2022/04/16 06:06:08;;;;;;;13.20;9.40;;;17.50;58.70;;;;;;4912678;28;98652;-67
2022/04/16 06:08:35;;;;;;;11.48;9.93;;;17.50;58.60;;;;;;4912213;28;103536;-70
2022/04/16 06:11:03;;;;;;;12.63;9.07;;;17.60;58.90;;;;;;4911619;28;101015;-69
2022/04/16 06:13:32;;;;;;;13.95;9.50;;;17.60;58.90;;;;;;4912352;28;99158;-68
2022/04/16 06:15:58;;;;;;;11.25;9.27;;;17.70;59.10;;;;;;4912260;28;98597;-68
2022/04/16 06:18:24;;;;;;;13.85;9.43;;;17.70;58.90;;;;;;4912533;28;100757;-68
2022/04/16 06:20:50;;;;;;;14.20;9.40;;;17.80;59.00;;;;;;4913021;28;99961;-69
2022/04/16 06:23:22;;;;;;;11.90;9.85;;;17.90;59.00;;;;;;4913416;28;98898;-69
2022/04/16 06:25:48;;;;;;;14.13;9.98;;;18.00;59.00;;;;;;4913468;28;97924;-69
2022/04/16 06:28:14;;;;;;;17.30;9.18;;;18.00;59.00;;;;;;4911584;28;103469;-69
2022/04/16 06:30:40;;;;;;;13.95;9.43;;;18.00;59.90;;;;;;4910230;28;99078;-69
2022/04/16 06:33:05;;;;;;;11.52;10.32;;;18.10;59.50;;;;;;4909649;28;99958;-68
2022/04/16 06:35:32;;;;;;;12.27;9.63;;;18.20;59.80;;;;;;4910736;28;98770;-69
2022/04/16 06:37:59;;;;;;;13.95;9.50;;;18.30;59.90;;;;;;4910043;28;100260;-70
2022/04/16 06:40:25;;;;;;;12.75;9.60;;;18.30;59.90;;;;;;4909805;28;107300;-69
2022/04/16 06:42:54;;;;;;;11.85;9.93;;;18.40;60.00;;;;;;4910356;28;99088;-68
2022/04/16 06:45:20;;;;;;;12.70;9.40;;;18.40;59.90;;;;;;4910533;28;98623;-69
2022/04/16 06:47:45;;;;;;;13.15;9.45;;;18.50;59.90;;;;;;4910463;28;100272;-69
2022/04/16 06:50:11;;;;;;;13.82;10.18;;;18.50;59.90;;;;;;4910528;28;108909;-69
2022/04/16 06:52:37;;;;;;;12.45;9.27;;;18.50;59.90;;;;;;4911122;28;98604;-69
2022/04/16 06:55:13;;;;;;;12.20;9.20;;;18.50;59.30;;;;;;4912801;28;99028;-68
2022/04/16 06:57:39;;;;;;;10.68;9.00;;;18.60;59.20;;;;;;4913871;28;100012;-69
2022/04/16 07:00:07;;;;;;;10.95;8.95;;;18.60;59.10;;;;;;4913502;28;99629;-67
2022/04/16 07:02:33;;;;;;;11.15;8.93;;;18.60;59.10;;;;;;4913010;28;99018;-68
2022/04/16 07:04:59;;;;;;;10.45;8.65;;;18.60;59.10;;;;;;4911306;28;98836;-70
2022/04/16 07:07:30;;;;;;;11.82;9.00;;;18.70;59.20;;;;;;4909802;28;100294;-68
2022/04/16 07:09:58;;;;;;;10.38;9.10;;;18.70;59.30;;;;;;4910734;28;100458;-68
2022/04/16 07:12:23;;;;;;;11.60;8.77;;;18.70;59.40;;;;;;4911113;28;98529;-67
2022/04/16 07:14:49;;;;;;;11.15;9.05;;;18.70;58.90;;;;;;4910626;28;97957;-69
2022/04/16 07:17:14;;;;;;;12.50;8.95;;;18.70;58.70;;;;;;4909033;28;113516;-68
2022/04/16 07:19:40;;;;;;;11.70;8.80;;;18.70;58.60;;;;;;4908341;28;99536;-68
2022/04/16 07:22:06;;;;;;;11.48;8.63;;;18.70;58.50;;;;;;4909178;28;99387;-71
2022/04/16 07:24:37;;;;;;;10.57;7.95;;;18.70;58.40;;;;;;4910458;28;99143;-68
2022/04/16 07:27:09;;;;;;;11.05;8.30;;;18.70;58.40;;;;;;4909376;28;101032;-68
2022/04/16 07:29:35;;;;;;;9.52;8.18;;;18.70;58.30;;;;;;4909218;28;99917;-69
2022/04/16 07:32:00;;;;;;;8.07;7.25;;;18.70;58.30;;;;;;4909837;28;99136;-67
2022/04/16 07:34:27;;;;;;;8.50;7.60;;;18.70;58.30;;;;;;4909276;28;99170;-68
2022/04/16 07:36:53;;;;;;;8.95;6.82;;;18.80;58.20;;;;;;4908249;28;100853;-68
2022/04/16 07:39:18;;;;;;;9.45;7.40;;;18.80;58.10;;;;;;4908768;28;111387;-69
2022/04/16 07:41:44;;;;;;;8.70;7.05;;;18.80;58.10;;;;;;4910097;28;99026;-68
2022/04/16 07:44:09;;;;;;;8.30;7.45;;;18.80;58.00;;;;;;4909209;28;98985;-68
2022/04/16 07:46:35;;;;;;;7.97;6.93;;;18.90;57.90;;;;;;4909232;28;99832;-68
2022/04/16 07:49:03;;;;;;;7.97;7.18;;;18.90;57.80;;;;;;4908488;28;100743;-69
2022/04/16 07:51:29;;;;;;;7.57;6.53;;;18.90;57.70;;;;;;4909277;28;98650;-66
2022/04/16 07:53:58;;;;;;;7.10;6.38;;;18.90;57.70;;;;;;4909515;28;98592;-66
2022/04/16 07:56:24;;;;;;;6.93;6.22;;;18.90;57.70;;;;;;4908820;28;100339;-67
2022/04/16 07:58:50;;;;;;;7.45;6.50;;;18.90;57.60;;;;;;4908176;28;99267;-67
2022/04/16 08:01:16;;;;;;;7.35;6.35;;;18.90;57.50;;;;;;4909069;28;98706;-67
2022/04/16 08:03:42;;;;;;;7.35;6.00;;;18.90;57.50;;;;;;4909913;28;97806;-67
2022/04/16 08:06:08;;;;;;;9.50;6.63;;;18.90;57.60;;;;;;4909530;28;99260;-67
2022/04/16 08:08:33;;;;;;;9.45;6.80;;;19.00;57.70;;;;;;4908382;28;100305;-67
2022/04/16 08:10:59;;;;;;;8.50;5.78;;;18.90;57.60;;;;;;4907765;28;99315;-67
2022/04/16 08:13:25;;;;;;;8.95;6.28;;;18.90;57.50;;;;;;4908691;28;98641;-68
2022/04/16 08:15:51;;;;;;;7.05;5.57;;;19.00;57.60;;;;;;4907504;28;100091;-67
2022/04/16 08:18:17;;;;;;;6.20;5.20;;;19.00;57.60;;;;;;4907337;28;100470;-67
2022/04/16 08:20:43;;;;;;;8.95;5.93;;;19.10;57.60;;;;;;4908615;28;98999;-67
2022/04/16 08:23:08;;;;;;;6.97;5.20;;;19.10;57.50;;;;;;4909658;28;98911;-69
2022/04/16 08:28:02;;;;;;;5.30;4.80;;;19.10;57.40;;;;;;4908892;28;98747;-69
2022/04/16 08:30:28;;;;;;;6.10;4.60;;;19.10;57.40;;;;;;4909881;28;100461;-67
2022/04/16 08:32:54;;;;;;;6.05;4.90;;;19.10;57.40;;;;;;4909905;28;98873;-68
2022/04/16 08:35:20;;;;;;;6.10;4.82;;;19.10;57.40;;;;;;4908156;28;101295;-67
2022/04/16 08:37:49;;;;;;;5.35;4.85;;;19.10;57.40;;;;;;4909566;28;100832;-67
2022/04/16 08:40:16;;;;;;;5.68;5.05;;;19.10;57.50;;;;;;4909533;28;98736;-67
2022/04/16 08:42:44;;;;;;;8.63;5.00;;;19.10;57.60;;;;;;4912252;28;98505;-68
2022/04/16 08:45:12;;;;;;;5.07;4.57;;;19.10;57.50;;;;;;4910786;28;100421;-66
2022/04/16 08:47:39;;;;;;;7.03;5.03;;;19.10;57.50;;;;;;4914035;28;99413;-68
2022/04/16 08:50:09;;;;;;;5.05;4.40;;;19.10;57.50;;;;;;4913150;28;98492;-67
2022/04/16 08:52:37;;;;;;;5.18;4.65;;;19.10;57.50;;;;;;4913720;28;97855;-66
2022/04/16 08:55:06;;;;;;;5.53;4.28;;;19.10;57.50;;;;;;4912435;28;99681;-67
2022/04/16 08:57:32;;;;;;;5.55;4.63;;;19.10;57.50;;;;;;4912909;28;100675;-67
2022/04/16 08:59:58;;;;;;;8.32;4.57;;;19.10;57.50;;;;;;4912774;28;101055;-67
2022/04/16 09:02:26;;;;;;;5.45;4.38;;;19.10;57.50;;;;;;4913395;28;98655;-68
2022/04/16 09:05:06;;;;;;;5.85;4.15;;;19.10;57.40;;;;;;4911729;28;99315;-67
2022/04/16 09:07:44;;;;;;;4.55;4.03;;;19.20;57.50;;;;;;4911384;28;100405;-67
2022/04/16 09:10:10;;;;;;;4.85;4.30;;;19.10;57.50;;;;;;4911680;28;99106;-69
2022/04/16 09:12:40;;;;;;;4.60;4.00;;;19.10;57.50;;;;;;4911062;28;98992;-68
2022/04/16 09:15:07;;;;;;;4.95;4.03;;;19.10;57.40;;;;;;4910784;28;100165;-68
2022/04/16 09:17:33;;;;;;;5.28;4.10;;;19.10;57.40;;;;;;4910556;28;99465;-67
2022/04/16 09:19:58;;;;;;;4.35;3.95;;;19.10;57.40;;;;;;4910580;28;98945;-67
2022/04/16 09:22:38;;;;;;;4.68;3.85;;;19.10;57.40;;;;;;4910956;28;98638;-68
2022/04/16 09:25:14;;;;;;;4.40;4.00;;;19.20;57.40;;;;;;4910185;28;100803;-68
2022/04/16 09:27:46;;;;;;;4.07;3.67;;;19.10;57.40;;;;;;4910615;28;101010;-68
2022/04/16 09:30:13;;;;;;;4.90;3.80;;;19.20;57.40;;;;;;4910934;28;98774;-68
2022/04/16 09:32:44;;;;;;;4.40;3.97;;;19.20;57.40;;;;;;4911687;28;99115;-68
2022/04/16 09:35:30;;;;;;;4.38;3.97;;;19.20;57.40;;;;;;4910858;28;100235;-69
2022/04/16 09:37:56;;;;;;;3.95;3.35;;;19.20;57.30;;;;;;4894185;28;99256;-68
2022/04/16 09:40:30;;;;;;;4.30;3.90;;;19.20;57.50;;;;;;4911113;28;98980;-67
2022/04/16 09:42:57;;;;;;;4.55;3.70;;;19.20;57.50;;;;;;4910752;28;98295;-67
2022/04/16 09:45:23;;;;;;;4.47;3.50;;;19.20;57.60;;;;;;4910293;28;100340;-67
2022/04/16 09:47:50;;;;;;;4.53;3.75;;;19.20;57.70;;;;;;4910398;28;100211;-68
2022/04/16 09:50:21;;;;;;;4.15;3.70;;;19.20;57.70;;;;;;4910114;28;99803;-67
2022/04/16 09:53:00;;;;;;;4.05;3.42;;;19.20;57.70;;;;;;4911626;28;98974;-67
2022/04/16 09:55:27;;;;;;;4.45;3.65;;;19.20;57.70;;;;;;4909985;28;100634;-71
2022/04/16 09:58:04;;;;;;;4.80;3.47;;;19.20;57.80;;;;;;4911070;28;99940;-69
2022/04/16 10:00:35;;;;;;;6.30;3.90;;;19.20;57.90;;;;;;4893388;28;98710;-68
2022/04/16 10:03:06;;;;;;;3.60;3.30;;;19.20;57.90;;;;;;4911823;28;99037;-70
2022/04/16 10:05:31;;;;;;;3.53;3.22;;;19.20;58.00;;;;;;4910453;28;99322;-66
2022/04/16 10:07:58;;;;;;;8.02;3.65;;;19.30;58.10;;;;;;4911936;28;99780;-67
2022/04/16 10:10:41;;;;;;;6.03;3.80;;;19.20;58.10;;;;;;4911674;28;99247;-68
2022/04/16 10:13:09;;;;;;;;;;;19.20;58.10;;;;;;4911244;28;99116;-67
2022/04/16 10:15:52;;;;;;;3.92;3.53;;;19.20;58.20;;;;;;4911308;28;101609;-68
2022/04/16 10:18:18;;;;;;;;;;;19.20;58.30;;;;;;4911044;28;101056;-67
2022/04/16 10:20:55;;;;;;;4.20;3.30;;;19.20;58.50;;;;;;4912030;28;99284;-70
2022/04/16 10:23:38;;;;;;;3.92;3.10;;;19.20;58.60;;;;;;4911553;28;98880;-69
2022/04/16 10:26:12;;;;;;;3.55;3.25;;;19.20;58.50;;;;;;4914458;28;99318;-69
2022/04/16 10:28:53;;;;;;;4.25;3.60;;;19.20;58.50;;;;;;4914003;28;99893;-68
2022/04/16 10:31:28;;;;;;;3.83;3.40;;;19.20;58.50;;;;;;4912052;28;99159;-69
2022/04/16 10:34:05;;;;;;;4.95;3.17;;;19.20;59.50;;;;;;4910615;28;98306;-69
2022/04/16 10:36:36;;;;;;;3.70;3.38;;;19.20;58.50;;;;;;4909558;28;100255;-69
2022/04/16 10:39:13;;;;;;;4.10;3.70;;;19.20;58.50;;;;;;4910272;28;100016;-70
2022/04/16 10:41:38;;;;;;;3.38;3.08;;;19.10;58.50;;;;;;4909460;28;100023;-70
2022/04/16 10:44:09;;;;;;;3.60;3.30;;;19.10;58.40;;;;;;4910477;28;99093;-70
2022/04/16 10:46:46;;;;;;;3.95;3.53;;;19.10;58.30;;;;;;4909552;28;100822;-69
2022/04/16 10:49:13;;;;;;;3.58;3.28;;;19.20;58.40;;;;;;4891985;28;100491;-72
2022/04/16 10:51:39;;;;;;;3.75;3.40;;;19.10;58.40;;;;;;4909901;28;99151;-69
2022/04/16 10:54:13;;;;;;;4.60;3.10;;;19.20;58.40;;;;;;4909770;28;98644;-71
2022/04/16 10:56:40;;;;;;;3.20;2.90;;;19.10;58.30;;;;;;4909197;28;100451;-67
2022/04/16 10:59:11;;;;;;;4.47;3.10;;;19.20;58.40;;;;;;4908814;28;99892;-68
2022/04/16 11:01:37;;;;;;;4.07;2.97;;;19.10;58.30;;;;;;4909316;28;98659;-68
2022/04/16 11:04:13;;;;;;;5.10;3.17;;;19.10;58.30;;;;;;4910686;28;98643;-68
2022/04/16 11:06:43;;;;;;;3.47;3.15;;;19.10;58.20;;;;;;4908763;28;100685;-67
2022/04/16 11:09:12;;;;;;;3.80;3.38;;;19.10;58.30;;;;;;4909174;28;100639;-67
2022/04/16 11:11:38;;;;;;;3.50;3.17;;;19.10;58.30;;;;;;4909837;28;98937;-68
2022/04/16 11:14:07;;;;;;;3.85;3.15;;;19.20;58.30;;;;;;4910507;28;98611;-68
2022/04/16 11:16:42;;;;;;;3.45;3.00;;;19.10;58.30;;;;;;4910363;28;99798;-68
2022/04/16 11:19:17;;;;;;;3.63;2.88;;;19.10;58.30;;;;;;4909851;28;99768;-67
2022/04/16 11:21:43;;;;;;;3.25;2.90;;;19.10;58.30;;;;;;4910472;28;99180;-67
2022/04/16 11:24:09;;;;;;;3.38;2.88;;;19.10;58.30;;;;;;4911075;28;97985;-67
2022/04/16 11:34:55;;;;;;;2.90;2.67;;;19.10;58.30;;;;;;4908553;28;99163;-70
2022/04/16 11:37:29;;;;;;;3.33;2.83;;;19.10;58.30;;;;;;4907937;28;100511;-67
2022/04/16 11:40:08;;;;;;;3.60;2.85;;;19.10;58.30;;;;;;4908378;28;101187;-68
2022/04/16 11:42:35;;;;;;;3.88;2.97;;;19.10;58.30;;;;;;4909117;28;100088;-69
2022/04/16 11:45:02;;;;;;;2.85;2.65;;;19.10;58.30;;;;;;4909157;28;99035;-68
2022/04/16 11:47:30;;;;;;;3.75;2.63;;;19.10;58.30;;;;;;4908423;28;100247;-69
2022/04/16 11:49:59;;;;;;;4.03;3.15;;;19.10;58.10;;;;;;4908436;28;100216;-69
2022/04/16 11:52:29;;;;;;;3.10;2.80;;;19.10;58.00;;;;;;4908911;28;98552;-69
2022/04/16 11:55:04;;;;;;;4.70;2.50;;;19.10;58.00;;;;;;4909201;28;98897;-70
2022/04/16 11:57:32;;;;;;;3.25;2.90;;;19.10;57.90;;;;;;4908448;28;100125;-68
2022/04/16 12:00:08;;;;;;;3.17;2.88;;;19.10;57.90;;;;;;4908181;28;101063;-68
2022/04/16 12:02:36;;;;;;;3.30;2.70;;;19.10;57.90;;;;;;4908489;28;99112;-69
2022/04/16 12:05:16;;;;;;;3.67;2.85;;;19.10;57.90;;;;;;4909592;28;99167;-69
2022/04/16 12:07:48;;;;;;;4.35;3.22;;;19.10;57.80;;;;;;4909411;28;99082;-69
2022/04/16 12:10:15;;;;;;;3.35;2.55;;;19.10;57.80;;;;;;4909652;28;100135;-69
2022/04/16 12:12:48;;;;;;;3.78;2.80;;;19.10;58.70;;;;;;4910479;28;99018;-68
2022/04/16 12:15:27;;;;;;;3.22;2.58;;;19.10;57.80;;;;;;4910154;28;98419;-68
2022/04/16 12:17:55;;;;;;;3.42;2.65;;;19.10;57.90;;;;;;4908467;28;99208;-68
2022/04/16 12:20:22;;;;;;;3.67;2.67;;;19.10;58.00;;;;;;4906899;28;100374;-68
2022/04/16 12:22:54;;;;;;;5.47;4.25;;;19.10;58.00;;;;;;4908898;28;100382;-68
2022/04/16 12:25:24;;;;;;;11.85;6.13;;;19.10;58.30;;;;;;4908541;28;99151;-68
2022/04/16 12:27:54;;;;;;;22.25;9.52;;;19.10;58.70;;;;;;4908220;28;100635;-70
2022/04/16 12:30:28;;;;;;;15.27;6.45;;;19.10;59.00;;;;;;4908279;28;100687;-68
2022/04/16 12:33:04;;;;;;;10.52;5.82;;;19.20;58.90;;;;;;4908921;28;99373;-68
2022/04/16 12:35:31;;;;;;;11.70;6.22;;;19.20;58.90;;;;;;4909123;28;99138;-68
2022/04/16 12:37:58;;;;;;;12.48;5.25;;;19.20;58.90;;;;;;4891104;28;100218;-68
2022/04/16 12:40:27;;;;;;;11.65;5.63;;;19.20;58.90;;;;;;4908125;28;100458;-68
2022/04/16 12:42:54;;;;;;;12.73;5.53;;;19.20;58.80;;;;;;4909746;28;98686;-69
2022/04/16 12:45:20;;;;;;;9.95;4.78;;;19.20;58.80;;;;;;4908482;28;98634;-69
2022/04/16 12:47:47;;;;;;;11.25;5.90;;;19.20;58.70;;;;;;4906600;28;101507;-68
2022/04/16 12:50:15;;;;;;;11.05;5.53;;;19.20;58.70;;;;;;4907656;28;100621;-68
2022/04/16 12:52:42;;;;;;;11.45;5.28;;;19.20;58.60;;;;;;4909328;28;98615;-68
2022/04/16 12:55:09;;;;;;;9.25;4.80;;;19.20;58.60;;;;;;4908136;28;99019;-67
2022/04/16 12:57:34;;;;;;;8.20;4.55;;;19.20;58.50;;;;;;4908271;28;100206;-68
2022/04/16 13:00:00;;;;;;;10.02;4.85;;;19.20;58.40;;;;;;4907343;28;100491;-68
2022/04/16 13:02:26;;;;;;;8.48;4.93;;;19.20;58.30;;;;;;4909298;28;98695;-68
2022/04/16 13:04:51;;;;;;;9.50;4.72;;;19.20;58.30;;;;;;4908583;28;98267;-69
2022/04/16 13:07:17;;;;;;;8.30;4.63;;;19.20;58.20;;;;;;4906803;28;100534;-68
2022/04/16 13:09:43;;;;;;;10.35;4.88;;;19.20;58.20;;;;;;4907754;28;99886;-68
2022/04/16 13:12:09;;;;;;;10.95;4.55;;;19.20;58.10;;;;;;4907848;28;99990;-68
2022/04/16 13:14:34;;;;;;;9.10;4.60;;;19.20;58.10;;;;;;4907022;28;98624;-68
2022/04/16 13:17:02;;;;;;;8.35;4.68;;;19.20;58.00;;;;;;4907971;28;100368;-68
2022/04/16 13:19:28;;;;;;;8.77;4.30;;;19.20;57.90;;;;;;4888728;28;100567;-68
2022/04/16 13:21:55;;;;;;;7.32;4.40;;;19.20;57.90;;;;;;4906754;28;99179;-70
2022/04/16 13:24:21;;;;;;;8.60;4.30;;;19.20;57.70;;;;;;4906454;28;98607;-68
2022/04/16 13:26:47;;;;;;;8.73;4.38;;;19.20;57.70;;;;;;4906373;28;101014;-69
2022/04/16 13:29:15;;;;;;;7.70;4.00;;;19.20;57.50;;;;;;4906280;28;99460;-68
2022/04/16 13:31:42;;;;;;;7.32;4.18;;;19.20;57.50;;;;;;4907913;28;99101;-68
2022/04/16 13:34:09;;;;;;;6.95;4.00;;;19.30;57.40;;;;;;4909753;28;99006;-67
2022/04/16 13:36:36;;;;;;;5.78;3.90;;;19.30;57.30;;;;;;4909047;28;99946;-68
2022/04/16 13:39:04;;;;;;;6.45;3.95;;;19.20;57.20;;;;;;4909403;28;99671;-67
2022/04/16 13:41:38;;;;;;;6.55;3.72;;;19.20;57.10;;;;;;4909523;28;99240;-67
2022/04/16 13:44:10;;;;;;;6.40;3.97;;;19.20;57.10;;;;;;4910313;28;98653;-68
2022/04/16 13:46:39;;;;;;;6.78;3.90;;;19.20;57.10;;;;;;4909669;28;100758;-69
2022/04/16 13:49:05;;;;;;;7.63;3.90;;;19.20;57.10;;;;;;4909588;28;99244;-68
2022/04/16 13:51:32;;;;;;;4.65;3.33;;;19.20;57.00;;;;;;4911717;28;99125;-69
2022/04/16 13:53:59;;;;;;;7.55;3.70;;;19.20;57.00;;;;;;4913255;28;97831;-68
2022/04/16 13:56:25;;;;;;;5.28;3.75;;;19.20;57.00;;;;;;4911712;28;99247;-67
2022/04/16 13:58:50;;;;;;;6.50;3.70;;;19.20;57.00;;;;;;4909580;28;100108;-68
2022/04/16 14:01:17;;;;;;;7.22;3.60;;;19.20;57.00;;;;;;4909548;28;99758;-68
2022/04/16 14:03:46;;;;;;;7.28;3.85;;;19.20;57.00;;;;;;4909577;28;99067;-68